Burin, Canada
Current Conditions -  °F | °C
As of 4:00 PM on Wednesday 17 Dec 2014 (Local Time) from LFVP Reporting Station
Light Snow Light Snow  
Wind Chill: 24°   Ceiling: 600
Heat Index: 32°   Visibility: 6mi
Dew Point: 30°   Wind: 10mph
Humidity: 93%   Direction: 100°E
Pressure: 30.09"   Gusts: NA
Location:  47.05°N, 55.16°W
Report Text: LFVP 171900Z 10009KT 9000 -SN BKN006 BKN020 00/M01 Q1019
Loading
Personal Weather Stations






























Interactive Weather Map New forecast layout! Learn more

10-Day Weather Forecast

Advertisements
Track Severe Weather on mobile